createdAt,value
2022-10-05T00:01:52.813Z,23.40
2022-10-05T00:06:58.991Z,23.40
2022-10-05T00:12:06.900Z,23.40
2022-10-05T00:17:11.605Z,23.40
2022-10-05T00:22:17.198Z,23.30
2022-10-05T00:27:21.186Z,23.40
2022-10-05T00:32:23.813Z,23.40
2022-10-05T00:37:27.993Z,23.30
2022-10-05T00:42:37.241Z,23.30
2022-10-05T00:47:45.526Z,23.30
2022-10-05T00:52:55.572Z,23.30
2022-10-05T00:58:02.541Z,23.30
2022-10-05T01:03:08.422Z,23.30
2022-10-05T01:08:19.346Z,23.20
2022-10-05T01:13:26.671Z,23.20
2022-10-05T01:18:33.112Z,23.20
2022-10-05T01:23:52.430Z,23.20
2022-10-05T01:28:59.265Z,23.20
2022-10-05T01:34:11.646Z,23.20
2022-10-05T01:39:17.663Z,23.30
2022-10-05T01:44:24.514Z,23.30
2022-10-05T01:49:34.486Z,23.20
2022-10-05T01:54:40.849Z,23.10
2022-10-05T01:59:50.316Z,23.20
2022-10-05T02:05:01.787Z,23.10
2022-10-05T02:10:06.816Z,23.10
2022-10-05T02:15:13.038Z,23.10
2022-10-05T02:20:17.985Z,23.10
2022-10-05T02:25:22.350Z,23.10
2022-10-05T02:30:26.293Z,23.10
2022-10-05T02:35:28.874Z,23.10
2022-10-05T02:40:37.262Z,23.10
2022-10-05T02:45:47.547Z,23.10
2022-10-05T02:50:53.661Z,23.00
2022-10-05T02:56:04.784Z,23.00
2022-10-05T03:01:13.254Z,23.10
2022-10-05T03:06:19.823Z,23.00
2022-10-05T03:11:26.357Z,23.00
2022-10-05T03:16:35.814Z,22.90
2022-10-05T03:21:47.322Z,22.90
2022-10-05T03:26:53.091Z,23.00
2022-10-05T03:31:58.826Z,22.90
2022-10-05T03:37:04.117Z,22.90
2022-10-05T03:42:09.249Z,22.90
2022-10-05T03:47:20.264Z,22.90
2022-10-05T03:52:25.064Z,22.80
2022-10-05T03:57:29.250Z,22.90
2022-10-05T04:02:34.132Z,22.90
2022-10-05T04:07:40.492Z,22.90
2022-10-05T04:12:44.938Z,22.90
2022-10-05T04:17:51.471Z,22.80
2022-10-05T04:22:58.114Z,22.90
2022-10-05T04:28:03.155Z,22.80
2022-10-05T04:33:10.070Z,22.90
2022-10-05T04:38:19.510Z,22.90
2022-10-05T04:43:28.363Z,22.90
2022-10-05T04:48:46.908Z,22.80
2022-10-05T04:53:55.009Z,22.80
2022-10-05T04:59:04.086Z,22.80
2022-10-05T05:04:19.753Z,22.80
2022-10-05T05:09:27.490Z,22.70
2022-10-05T05:14:52.781Z,22.80
2022-10-05T05:19:59.629Z,22.70
2022-10-05T05:25:13.094Z,22.80
2022-10-05T05:30:19.472Z,22.70
2022-10-05T05:35:35.501Z,22.70
2022-10-05T05:40:41.227Z,22.70
2022-10-05T05:45:47.084Z,22.60
2022-10-05T05:50:56.210Z,22.70
2022-10-05T05:56:00.930Z,22.70
2022-10-05T06:01:06.237Z,22.60
2022-10-05T06:06:11.635Z,22.60
2022-10-05T06:11:17.302Z,22.60
2022-10-05T06:16:22.222Z,22.70
2022-10-05T06:21:29.578Z,22.60
2022-10-05T06:26:37.626Z,22.60
2022-10-05T06:31:47.475Z,22.70
2022-10-05T06:36:52.362Z,22.60
2022-10-05T06:42:00.404Z,22.70
2022-10-05T06:47:07.030Z,22.40
2022-10-05T06:52:15.719Z,22.10
2022-10-05T06:57:26.834Z,22.20
2022-10-05T07:02:34.290Z,22.30
2022-10-05T07:07:43.502Z,22.20
2022-10-05T07:12:51.403Z,22.20
2022-10-05T07:18:01.061Z,22.30
2022-10-05T07:23:19.710Z,22.40
2022-10-05T07:28:28.119Z,22.60
2022-10-05T07:33:35.180Z,22.70
2022-10-05T07:38:41.926Z,22.80
2022-10-05T07:44:02.105Z,22.70
2022-10-05T07:49:09.909Z,22.70
2022-10-05T07:54:22.156Z,22.80
2022-10-05T07:59:31.713Z,22.90
2022-10-05T08:04:41.771Z,22.90
2022-10-05T08:09:52.934Z,22.90
2022-10-05T08:14:57.487Z,23.00
2022-10-05T08:20:03.942Z,22.90
2022-10-05T08:25:15.182Z,23.00
2022-10-05T08:30:18.135Z,23.10
2022-10-05T08:35:25.907Z,23.20
2022-10-05T08:40:47.758Z,23.20
2022-10-05T08:45:58.099Z,23.00
2022-10-05T08:51:18.467Z,23.00
2022-10-05T08:56:29.340Z,23.10
2022-10-05T09:01:39.085Z,23.20
2022-10-05T09:06:50.987Z,23.20
2022-10-05T09:12:01.894Z,23.20
2022-10-05T09:17:13.097Z,23.10
2022-10-05T09:22:16.270Z,23.10
2022-10-05T09:27:20.180Z,23.10
2022-10-05T09:32:36.671Z,23.20
2022-10-05T09:38:03.853Z,23.20
2022-10-05T09:43:19.998Z,23.20
2022-10-05T09:48:51.541Z,23.40
2022-10-05T09:54:21.174Z,23.40
2022-10-05T09:59:45.491Z,23.50
2022-10-05T10:05:07.498Z,23.40
2022-10-05T10:10:34.022Z,23.30
2022-10-05T10:15:44.451Z,23.40
2022-10-05T10:20:57.590Z,23.50
2022-10-05T10:26:16.122Z,23.60
2022-10-05T10:31:27.174Z,23.60
2022-10-05T10:36:38.983Z,23.80
2022-10-05T10:42:03.164Z,23.70
2022-10-05T10:47:21.526Z,23.80
2022-10-05T10:52:34.990Z,23.80
2022-10-05T10:57:44.422Z,23.90
2022-10-05T11:03:01.978Z,23.90
2022-10-05T11:08:22.449Z,23.90
2022-10-05T11:13:32.243Z,24.00
2022-10-05T11:18:43.904Z,23.90
2022-10-05T11:24:19.495Z,23.70
2022-10-05T11:29:29.890Z,23.70
2022-10-05T11:34:39.494Z,23.80
2022-10-05T11:39:44.665Z,23.90
2022-10-05T11:45:03.554Z,23.90
2022-10-05T11:50:12.523Z,23.90
2022-10-05T11:55:23.293Z,23.70
2022-10-05T12:00:31.701Z,23.70
2022-10-05T12:05:39.472Z,23.90
2022-10-05T12:10:45.637Z,23.90
2022-10-05T12:15:54.003Z,24.00
2022-10-05T12:21:00.155Z,24.00
2022-10-05T12:26:04.106Z,23.90
2022-10-05T12:31:20.267Z,23.80
2022-10-05T12:36:31.870Z,23.90
2022-10-05T12:41:48.978Z,23.90
2022-10-05T12:46:57.235Z,24.10
2022-10-05T12:52:00.669Z,24.10
2022-10-05T12:57:08.370Z,24.10
2022-10-05T13:02:19.885Z,24.10
2022-10-05T13:07:27.993Z,24.10
2022-10-05T13:12:36.121Z,24.10
2022-10-05T13:17:42.393Z,24.10
2022-10-05T13:22:47.579Z,24.00
2022-10-05T13:27:54.370Z,24.00
2022-10-05T13:33:01.149Z,24.10
2022-10-05T13:38:08.694Z,24.10
2022-10-05T13:43:16.419Z,24.20
2022-10-05T13:48:24.185Z,24.50
2022-10-05T13:53:29.394Z,24.60
2022-10-05T13:58:40.401Z,24.70
2022-10-05T14:04:03.726Z,24.70
2022-10-05T14:09:11.654Z,24.90
2022-10-05T14:14:15.687Z,25.00
2022-10-05T14:19:21.854Z,25.10
2022-10-05T14:24:45.295Z,25.10
2022-10-05T14:29:56.541Z,25.20
2022-10-05T14:35:15.143Z,25.30
2022-10-05T14:40:29.821Z,25.30
2022-10-05T14:45:33.700Z,25.40
2022-10-05T14:50:49.586Z,25.30
2022-10-05T14:56:05.209Z,25.40
2022-10-05T15:01:14.707Z,25.70
2022-10-05T15:06:22.716Z,25.70
2022-10-05T15:11:32.623Z,25.70
2022-10-05T15:16:40.392Z,26.30
2022-10-05T15:21:55.139Z,26.20
2022-10-05T15:26:58.757Z,26.10
2022-10-05T15:32:11.047Z,26.30
2022-10-05T15:37:17.070Z,26.30
2022-10-05T15:42:21.846Z,26.40
2022-10-05T15:47:27.457Z,26.70
2022-10-05T15:52:36.992Z,26.90
2022-10-05T15:57:42.009Z,26.80
2022-10-05T16:02:47.822Z,26.80
2022-10-05T16:08:20.309Z,26.70
2022-10-05T16:13:28.658Z,26.60
2022-10-05T16:18:43.160Z,26.40
2022-10-05T16:23:57.639Z,26.30
2022-10-05T16:29:03.625Z,26.30
2022-10-05T16:34:17.064Z,26.10
2022-10-05T16:39:26.232Z,26.00
2022-10-05T16:44:36.166Z,25.90
2022-10-05T16:49:41.569Z,25.80
2022-10-05T16:54:48.156Z,25.70
2022-10-05T17:00:00.529Z,25.60
2022-10-05T17:05:08.845Z,25.50
2022-10-05T17:10:23.300Z,25.30
2022-10-05T17:15:33.326Z,25.30
2022-10-05T17:20:42.889Z,25.10
2022-10-05T17:25:53.697Z,25.10
2022-10-05T17:31:09.008Z,25.00
2022-10-05T17:36:13.390Z,24.90
2022-10-05T17:41:21.547Z,24.90
2022-10-05T17:46:38.118Z,24.90
2022-10-05T17:52:22.353Z,24.90
2022-10-05T17:57:27.779Z,24.80
2022-10-05T18:02:42.668Z,24.80
2022-10-05T18:07:48.036Z,24.80
2022-10-05T18:13:11.773Z,24.80
2022-10-05T18:18:47.453Z,24.70
2022-10-05T18:24:01.258Z,24.70
2022-10-05T18:29:14.601Z,24.60
2022-10-05T18:34:23.214Z,24.60
2022-10-05T18:39:34.345Z,24.60
2022-10-05T18:44:40.379Z,24.50
2022-10-05T18:50:01.097Z,24.60
2022-10-05T18:55:06.834Z,24.50
2022-10-05T19:00:14.385Z,24.60
2022-10-05T19:05:46.330Z,24.40
2022-10-05T19:10:48.006Z,24.50
2022-10-05T19:15:55.388Z,24.40
2022-10-05T19:21:01.921Z,24.30
2022-10-05T19:26:11.917Z,24.40
2022-10-05T19:31:22.011Z,24.40
2022-10-05T19:36:31.802Z,24.40
2022-10-05T19:41:41.415Z,24.40
2022-10-05T19:47:02.541Z,24.30
2022-10-05T19:52:11.853Z,24.30
2022-10-05T19:57:17.865Z,24.40
2022-10-05T20:02:26.131Z,24.30
2022-10-05T20:07:30.910Z,24.30
2022-10-05T20:12:50.524Z,24.30
2022-10-05T20:18:10.495Z,24.30
2022-10-05T20:23:20.826Z,24.20
2022-10-05T20:28:31.421Z,24.30
2022-10-05T20:33:35.208Z,24.30
2022-10-05T20:38:41.208Z,24.20
2022-10-05T20:43:44.010Z,24.10
2022-10-05T20:48:47.394Z,24.20
2022-10-05T20:53:51.361Z,24.20
2022-10-05T20:58:54.537Z,24.20
2022-10-05T21:03:57.170Z,24.10
2022-10-05T21:09:01.130Z,24.20
2022-10-05T21:14:05.842Z,24.10
2022-10-05T21:19:09.814Z,24.20
2022-10-05T21:24:14.510Z,24.10
2022-10-05T21:29:17.092Z,24.20
2022-10-05T21:34:19.682Z,24.10
2022-10-05T21:39:24.626Z,24.10
2022-10-05T21:44:27.229Z,24.00
2022-10-05T21:49:29.936Z,24.10
2022-10-05T21:54:34.943Z,24.10
2022-10-05T21:59:37.606Z,24.10
2022-10-05T22:04:40.191Z,24.10
2022-10-05T22:09:44.126Z,24.10
2022-10-05T22:14:46.834Z,24.10
2022-10-05T22:19:49.592Z,24.10
2022-10-05T22:24:53.674Z,24.00
2022-10-05T22:29:57.223Z,24.00
2022-10-05T22:34:59.951Z,24.10
2022-10-05T22:40:04.263Z,24.00
2022-10-05T22:45:07.516Z,24.10
2022-10-05T22:50:10.550Z,23.90
2022-10-05T22:55:14.615Z,24.00
2022-10-05T23:00:17.648Z,24.00
2022-10-05T23:05:20.307Z,24.00
2022-10-05T23:10:24.270Z,24.00
2022-10-05T23:15:27.055Z,23.90
2022-10-05T23:20:29.662Z,24.00
2022-10-05T23:25:33.616Z,23.90
2022-10-05T23:30:36.267Z,23.90
2022-10-05T23:35:38.905Z,24.00
2022-10-05T23:40:46.174Z,24.00
2022-10-05T23:45:49.432Z,23.90
2022-10-05T23:50:52.375Z,23.90
2022-10-05T23:55:56.758Z,24.00
